Time;durP1;ratioP1;P1;durP2;ratioP2;P2;SDS_P1;SDS_P2;PMS_P1;PMS_P2;Temp;Humidity;BMP_temperature;BMP_pressure;BME280_temperature;BME280_humidity;BME280_pressure;Samples;Min_cycle;Max_cycle;Signal;HPM_P1;HPM_P2
2022/06/04 00:01:01;;;;;;;2.90;1.40;;;25.80;54.70;;;;;;4952807;28;20063;-57
2022/06/04 00:03:30;;;;;;;4.43;1.52;;;25.80;54.70;;;;;;4966726;28;20822;-59
2022/06/04 00:05:58;;;;;;;3.20;1.63;;;25.80;54.80;;;;;;4966638;28;20049;-60
2022/06/04 00:08:26;;;;;;;3.10;2.78;;;25.80;54.70;;;;;;4967467;28;20046;-57
2022/06/04 00:16:27;;;;;;;1.63;1.20;;;25.70;54.50;;;;;;4946232;28;19926;-57
2022/06/04 00:18:55;;;;;;;6.07;1.98;;;25.70;54.80;;;;;;4963979;28;20035;-53
2022/06/04 00:21:23;;;;;;;1.80;1.80;;;25.70;54.90;;;;;;4954646;28;20043;-56
2022/06/04 00:23:52;;;;;;;1.50;1.40;;;25.70;54.80;;;;;;4966220;28;20058;-57
2022/06/04 00:26:19;;;;;;;5.38;1.42;;;25.70;54.70;;;;;;4966180;28;20043;-58
2022/06/04 00:28:47;;;;;;;7.57;2.10;;;25.70;54.70;;;;;;4964425;28;20034;-54
2022/06/04 00:31:16;;;;;;;4.15;1.75;;;25.70;54.70;;;;;;4968585;28;20696;-53
2022/06/04 00:33:43;;;;;;;4.15;1.73;;;25.70;54.60;;;;;;4964811;28;20051;-57
2022/06/04 00:36:12;;;;;;;2.85;1.50;;;25.70;54.60;;;;;;4964950;28;20137;-58
2022/06/04 00:38:40;;;;;;;2.00;1.70;;;25.70;54.70;;;;;;4949396;28;20547;-58
2022/06/04 00:41:20;;;;;;;8.38;2.05;;;25.70;54.70;;;;;;4965816;28;20174;-58
2022/06/04 00:44:26;;;;;;;2.33;2.10;;;25.70;55.30;;;;;;4965695;28;20513;-58
2022/06/04 00:47:09;;;;;;;3.80;1.57;;;25.70;54.60;;;;;;4945954;28;20515;-58
2022/06/04 00:49:36;;;;;;;6.80;1.92;;;25.70;54.60;;;;;;4967150;28;20514;-58
2022/06/04 00:52:08;;;;;;;1.65;1.55;;;25.70;54.60;;;;;;4969271;28;20045;-57
2022/06/04 00:54:35;;;;;;;2.35;2.25;;;25.70;54.60;;;;;;4970230;28;20049;-55
2022/06/04 00:57:38;;;;;;;2.00;1.90;;;25.70;54.60;;;;;;4969573;28;20070;-55
2022/06/04 01:00:10;;;;;;;4.45;1.67;;;25.70;54.50;;;;;;4969938;28;20049;-57
2022/06/04 01:02:51;;;;;;;1.77;1.67;;;25.70;54.60;;;;;;4970210;28;20047;-53
2022/06/04 01:05:26;;;;;;;5.38;1.98;;;25.70;54.60;;;;;;4969074;28;20042;-55
2022/06/04 01:08:26;;;;;;;7.50;1.92;;;25.70;54.60;;;;;;4969176;28;20480;-56
2022/06/04 01:10:59;;;;;;;2.85;1.52;;;25.70;54.50;;;;;;4969158;28;20087;-56
2022/06/04 01:13:39;;;;;;;4.53;1.85;;;25.70;54.60;;;;;;4970339;28;20045;-55
2022/06/04 01:16:16;;;;;;;3.55;2.00;;;25.70;54.50;;;;;;4971476;28;20137;-54
2022/06/04 01:18:53;;;;;;;6.00;1.55;;;25.70;54.50;;;;;;4971032;28;20102;-55
2022/06/04 01:21:25;;;;;;;1.33;1.33;;;25.70;54.50;;;;;;4969720;28;20062;-54
2022/06/04 01:24:36;;;;;;;2.17;1.98;;;25.70;54.50;;;;;;4971590;28;20437;-57
2022/06/04 01:27:13;;;;;;;1.92;1.73;;;25.60;54.40;;;;;;4886758;29;20562;-52
2022/06/04 01:29:52;;;;;;;1.92;1.58;;;25.70;54.50;;;;;;4890854;29;20128;-57
2022/06/04 01:32:25;;;;;;;2.63;1.98;;;25.60;54.40;;;;;;4891465;29;20052;-52
2022/06/04 01:35:03;;;;;;;5.63;1.83;;;25.60;54.40;;;;;;4889530;29;20456;-56
2022/06/04 01:37:34;;;;;;;1.40;1.35;;;25.60;54.40;;;;;;4908020;29;20596;-54
2022/06/04 01:42:52;;;;;;;5.75;1.45;;;25.60;54.40;;;;;;4907520;29;20089;-55
2022/06/04 01:45:24;;;;;;;3.00;1.90;;;25.60;54.40;;;;;;4908505;29;20047;-57
2022/06/04 01:47:54;;;;;;;4.25;1.60;;;25.60;54.40;;;;;;4906242;29;20521;-56
2022/06/04 01:50:33;;;;;;;1.52;1.42;;;25.60;55.00;;;;;;4908387;29;20044;-55
2022/06/04 01:53:03;;;;;;;1.50;1.30;;;25.70;54.50;;;;;;4909068;29;20205;-55
2022/06/04 01:55:41;;;;;;;3.25;1.80;;;25.60;54.40;;;;;;4892448;29;20913;-55
2022/06/04 01:58:18;;;;;;;3.33;1.80;;;25.60;54.30;;;;;;4910450;29;20040;-56
2022/06/04 02:00:50;;;;;;;1.52;1.38;;;25.60;54.30;;;;;;4926875;28;20058;-56
2022/06/04 02:03:21;;;;;;;3.80;1.33;;;25.60;54.30;;;;;;4968722;28;20113;-56
2022/06/04 02:05:53;;;;;;;1.88;1.77;;;25.60;54.30;;;;;;4968997;28;20043;-53
2022/06/04 02:08:28;;;;;;;4.30;1.23;;;25.60;54.30;;;;;;4968592;28;20123;-55
2022/06/04 02:11:00;;;;;;;5.22;1.40;;;25.60;54.30;;;;;;4969240;28;20074;-56
2022/06/04 02:13:29;;;;;;;2.72;1.80;;;25.60;54.30;;;;;;4969432;28;20039;-53
2022/06/04 02:16:03;;;;;;;2.50;1.00;;;25.60;54.20;;;;;;4969866;28;20449;-57
2022/06/04 02:18:30;;;;;;;2.75;0.90;;;25.60;54.30;;;;;;4963548;28;20111;-56
2022/06/04 02:20:57;;;;;;;1.42;0.85;;;25.60;54.40;;;;;;4966519;28;20038;-57
2022/06/04 02:23:24;;;;;;;3.88;0.95;;;25.60;54.50;;;;;;4966289;28;20047;-56
2022/06/04 02:25:53;;;;;;;1.10;1.05;;;25.70;54.60;;;;;;4966635;28;20070;-54
2022/06/04 02:28:20;;;;;;;1.65;1.55;;;25.70;54.70;;;;;;4967872;28;20038;-56
2022/06/04 02:30:57;;;;;;;2.63;1.77;;;25.60;54.60;;;;;;4969358;28;20049;-56
2022/06/04 02:33:34;;;;;;;1.13;1.13;;;25.70;54.60;;;;;;4966732;28;20051;-57
2022/06/04 02:36:07;;;;;;;1.42;1.08;;;25.70;54.60;;;;;;4966317;28;20042;-58
2022/06/04 02:38:43;;;;;;;1.08;0.88;;;25.70;54.50;;;;;;4962290;28;20161;-55
2022/06/04 02:41:16;;;;;;;2.50;1.23;;;25.70;54.50;;;;;;4966534;28;20054;-56
2022/06/04 02:43:46;;;;;;;1.75;1.20;;;25.70;54.50;;;;;;4966312;28;20047;-53
2022/06/04 02:46:23;;;;;;;4.03;1.40;;;25.70;54.40;;;;;;4962503;28;20138;-53
2022/06/04 02:48:59;;;;;;;2.35;1.75;;;25.70;54.30;;;;;;4964875;28;20068;-54
2022/06/04 02:51:33;;;;;;;1.00;0.98;;;25.70;54.30;;;;;;4964031;28;20099;-51
2022/06/04 02:54:03;;;;;;;1.10;0.98;;;25.70;54.30;;;;;;4948486;28;20073;-55
2022/06/04 02:56:33;;;;;;;4.15;1.83;;;25.70;54.20;;;;;;4964669;28;20178;-56
2022/06/04 02:59:04;;;;;;;2.22;1.75;;;25.70;54.20;;;;;;4966024;28;20492;-52
2022/06/04 03:01:36;;;;;;;2.05;1.08;;;25.70;54.10;;;;;;4965031;28;20138;-53
2022/06/04 03:04:04;;;;;;;1.50;1.10;;;25.70;54.10;;;;;;4968632;28;20471;-55
2022/06/04 03:06:33;;;;;;;3.25;1.60;;;25.70;54.00;;;;;;4968090;28;20043;-54
2022/06/04 03:09:01;;;;;;;1.17;0.90;;;25.70;54.10;;;;;;4968123;28;20168;-52
2022/06/04 03:11:28;;;;;;;2.50;0.90;;;25.80;53.90;;;;;;4967950;28;20075;-52
2022/06/04 03:13:55;;;;;;;1.15;0.90;;;25.80;53.90;;;;;;4968313;28;20045;-51
2022/06/04 03:16:22;;;;;;;2.33;1.00;;;25.70;53.70;;;;;;4967960;28;20046;-53
2022/06/04 03:18:50;;;;;;;1.23;1.23;;;25.70;53.60;;;;;;4968475;28;20078;-51
2022/06/04 03:21:17;;;;;;;1.17;1.17;;;25.70;53.60;;;;;;4967994;28;20050;-54
2022/06/04 03:23:44;;;;;;;2.35;1.20;;;25.80;53.60;;;;;;4967867;28;20077;-52
2022/06/04 03:26:11;;;;;;;3.53;0.77;;;25.70;53.50;;;;;;4967895;28;20035;-54
2022/06/04 03:28:38;;;;;;;2.00;1.85;;;25.70;53.50;;;;;;4967393;28;20129;-54
2022/06/04 03:31:05;;;;;;;2.47;1.00;;;25.70;53.50;;;;;;4969637;28;20415;-56
2022/06/04 03:33:32;;;;;;;4.00;0.98;;;25.70;53.40;;;;;;4967652;28;20049;-55
2022/06/04 03:36:00;;;;;;;2.65;1.10;;;25.70;53.40;;;;;;4967211;28;20043;-56
2022/06/04 03:38:27;;;;;;;1.27;1.13;;;25.70;53.50;;;;;;4960789;28;20055;-55
2022/06/04 03:40:55;;;;;;;1.38;1.27;;;25.70;53.40;;;;;;4967808;28;20045;-55
2022/06/04 03:43:22;;;;;;;1.67;1.58;;;25.70;53.50;;;;;;4951031;28;20050;-56
2022/06/04 03:45:49;;;;;;;1.33;1.23;;;25.70;53.50;;;;;;4968016;28;20038;-56
2022/06/04 03:48:16;;;;;;;2.85;1.60;;;25.70;53.50;;;;;;4950341;28;20381;-55
2022/06/04 03:50:43;;;;;;;1.42;1.25;;;25.70;53.50;;;;;;4966984;28;20427;-57
2022/06/04 03:53:11;;;;;;;3.65;1.23;;;25.70;53.50;;;;;;4967519;28;20050;-56
2022/06/04 03:55:38;;;;;;;2.20;1.00;;;25.70;53.40;;;;;;4967640;28;20046;-56
2022/06/04 03:58:05;;;;;;;5.22;1.75;;;25.70;53.40;;;;;;4969098;28;20075;-56
2022/06/04 04:00:35;;;;;;;1.38;0.68;;;25.70;53.40;;;;;;4967529;28;20039;-54
2022/06/04 04:03:06;;;;;;;2.90;1.35;;;25.70;53.30;;;;;;4967507;28;20125;-53
2022/06/04 04:05:36;;;;;;;3.72;1.70;;;25.70;53.90;;;;;;4966882;28;20541;-57
2022/06/04 04:08:06;;;;;;;1.25;1.15;;;25.70;53.30;;;;;;4967500;28;20031;-58
2022/06/04 04:10:35;;;;;;;1.10;1.10;;;25.70;53.30;;;;;;4967479;28;20134;-57
2022/06/04 04:13:02;;;;;;;2.13;0.90;;;25.70;53.30;;;;;;4969149;28;20122;-57
2022/06/04 04:15:29;;;;;;;1.05;0.93;;;25.70;53.90;;;;;;4967067;28;20057;-56
2022/06/04 04:17:56;;;;;;;1.98;0.95;;;25.70;53.30;;;;;;4966921;28;20043;-57
2022/06/04 04:20:27;;;;;;;1.90;1.55;;;25.70;53.30;;;;;;4967170;28;20047;-59
2022/06/04 04:22:55;;;;;;;2.58;1.08;;;25.70;53.20;;;;;;4967318;28;20118;-58
2022/06/04 04:25:25;;;;;;;4.93;0.90;;;25.70;53.20;;;;;;4967736;28;20046;-58
2022/06/04 04:27:55;;;;;;;0.73;0.73;;;25.70;53.20;;;;;;4969208;28;20066;-58
2022/06/04 04:30:24;;;;;;;1.25;1.15;;;25.70;53.20;;;;;;4971153;28;20525;-58
2022/06/04 04:32:52;;;;;;;1.67;1.00;;;25.70;53.20;;;;;;4970166;28;20035;-58
2022/06/04 04:35:21;;;;;;;3.25;1.92;;;25.70;53.20;;;;;;4970776;28;20503;-55
2022/06/04 04:37:49;;;;;;;2.17;0.90;;;25.70;53.20;;;;;;4969199;28;20434;-58
2022/06/04 04:40:18;;;;;;;3.08;1.10;;;25.70;53.20;;;;;;4955101;28;20047;-58
2022/06/04 04:42:47;;;;;;;1.48;0.82;;;25.70;53.20;;;;;;4970800;28;20134;-56
2022/06/04 04:45:18;;;;;;;1.25;0.52;;;25.70;53.20;;;;;;4970516;28;20035;-55
2022/06/04 04:47:47;;;;;;;3.25;0.95;;;25.70;53.10;;;;;;4970067;28;20795;-56
2022/06/04 04:50:17;;;;;;;4.10;0.70;;;25.70;53.10;;;;;;4970579;28;20134;-56
2022/06/04 04:52:44;;;;;;;1.75;0.30;;;25.70;53.10;;;;;;4970469;28;20054;-56
2022/06/04 04:55:11;;;;;;;1.95;1.05;;;25.70;53.10;;;;;;4972218;28;20043;-57
2022/06/04 04:57:38;;;;;;;0.98;0.50;;;25.70;53.10;;;;;;4969670;28;20137;-56
2022/06/04 05:00:07;;;;;;;0.93;0.88;;;25.70;53.10;;;;;;4970432;28;20057;-51
2022/06/04 05:02:36;;;;;;;4.60;0.63;;;25.70;53.10;;;;;;4970393;28;20573;-56
2022/06/04 05:05:04;;;;;;;1.45;0.60;;;25.70;53.10;;;;;;4970444;28;20039;-55
2022/06/04 05:07:31;;;;;;;1.75;1.10;;;25.70;53.10;;;;;;4970986;28;20059;-55
2022/06/04 05:09:58;;;;;;;2.00;0.50;;;25.70;53.10;;;;;;4953918;28;20377;-56
2022/06/04 05:12:25;;;;;;;3.55;0.70;;;25.70;53.10;;;;;;4969943;28;20126;-54
2022/06/04 05:14:53;;;;;;;2.45;0.80;;;25.70;53.10;;;;;;4970214;28;20078;-54
2022/06/04 05:17:20;;;;;;;2.22;0.50;;;25.70;53.10;;;;;;4969751;28;20117;-56
2022/06/04 05:19:48;;;;;;;0.50;0.50;;;25.70;53.10;;;;;;4970351;28;20408;-56
2022/06/04 05:22:15;;;;;;;2.78;0.88;;;25.70;53.10;;;;;;4970671;28;20126;-53
2022/06/04 05:24:43;;;;;;;1.25;0.60;;;25.70;53.10;;;;;;4970414;28;20070;-55
2022/06/04 05:27:10;;;;;;;2.05;0.75;;;25.70;53.10;;;;;;4970005;28;20698;-57
2022/06/04 05:29:38;;;;;;;0.93;0.80;;;25.70;53.20;;;;;;4969585;28;20054;-55
2022/06/04 05:32:06;;;;;;;2.75;0.88;;;25.70;53.10;;;;;;4969806;28;20039;-54
2022/06/04 05:34:34;;;;;;;1.02;0.85;;;25.70;53.20;;;;;;4969934;28;20043;-56
2022/06/04 05:37:03;;;;;;;2.50;0.47;;;25.70;53.20;;;;;;4971376;28;20058;-57
2022/06/04 05:39:31;;;;;;;2.20;1.30;;;25.70;53.20;;;;;;4969140;28;20047;-58
2022/06/04 05:41:59;;;;;;;1.73;0.90;;;25.70;53.20;;;;;;4969931;28;20051;-55
2022/06/04 05:44:27;;;;;;;1.48;0.75;;;25.70;53.20;;;;;;4969400;28;20035;-58
2022/06/04 05:46:54;;;;;;;0.85;0.70;;;25.60;53.20;;;;;;4968953;28;20067;-56
2022/06/04 05:49:22;;;;;;;3.25;1.13;;;25.70;53.20;;;;;;4970153;28;20046;-56
2022/06/04 05:51:51;;;;;;;0.85;0.85;;;25.70;53.20;;;;;;4970636;28;20125;-57
2022/06/04 05:54:20;;;;;;;1.67;0.93;;;25.70;53.20;;;;;;4969353;28;20694;-56
2022/06/04 05:56:49;;;;;;;2.42;0.70;;;25.70;53.20;;;;;;4968969;28;20209;-55
2022/06/04 05:59:19;;;;;;;1.40;0.88;;;25.70;53.20;;;;;;4969056;28;20042;-56
2022/06/04 06:01:46;;;;;;;1.13;0.63;;;25.70;53.20;;;;;;4968668;28;20043;-57
2022/06/04 06:04:15;;;;;;;1.85;0.60;;;25.70;53.20;;;;;;4970961;28;20042;-57
2022/06/04 06:06:44;;;;;;;3.42;1.15;;;25.70;53.20;;;;;;4969026;28;20676;-56
2022/06/04 06:09:13;;;;;;;1.55;1.30;;;25.70;53.20;;;;;;4969145;28;20035;-55
2022/06/04 06:11:42;;;;;;;2.28;0.45;;;25.70;53.20;;;;;;4969264;28;20051;-56
2022/06/04 06:14:10;;;;;;;1.42;0.95;;;25.70;53.20;;;;;;4968551;28;20050;-56
2022/06/04 06:16:40;;;;;;;1.45;1.35;;;25.70;53.20;;;;;;4969031;28;20054;-58
2022/06/04 06:19:07;;;;;;;1.70;0.80;;;25.70;53.20;;;;;;4953264;28;20046;-56
2022/06/04 06:21:36;;;;;;;3.63;0.50;;;25.70;53.20;;;;;;4967780;28;20055;-54
2022/06/04 06:24:04;;;;;;;1.88;1.13;;;25.70;53.20;;;;;;4963757;28;20415;-56
2022/06/04 06:26:34;;;;;;;2.97;1.38;;;25.70;53.20;;;;;;4962838;28;20114;-61
2022/06/04 06:29:04;;;;;;;1.10;1.10;;;25.70;53.50;;;;;;4962286;28;20519;-56
2022/06/04 06:31:33;;;;;;;3.47;1.10;;;25.70;53.20;;;;;;4969536;28;20050;-56
2022/06/04 06:34:00;;;;;;;2.50;1.02;;;25.70;53.20;;;;;;4964960;28;20585;-58
2022/06/04 06:36:28;;;;;;;0.95;0.80;;;25.70;53.20;;;;;;4968033;28;20134;-56
2022/06/04 06:38:55;;;;;;;1.70;1.60;;;25.70;53.20;;;;;;4968534;28;20226;-58
2022/06/04 06:41:25;;;;;;;3.70;0.65;;;25.70;53.20;;;;;;4968611;28;20075;-57
2022/06/04 06:43:53;;;;;;;2.80;1.15;;;25.70;53.20;;;;;;4967943;28;20043;-57
2022/06/04 06:46:24;;;;;;;2.00;1.90;;;25.70;53.30;;;;;;4969510;28;20065;-57
2022/06/04 06:48:53;;;;;;;1.10;0.98;;;25.70;53.30;;;;;;4971819;28;20054;-56
2022/06/04 06:51:23;;;;;;;1.75;0.80;;;25.60;53.80;;;;;;4967059;28;20484;-57
2022/06/04 06:53:50;;;;;;;1.15;0.98;;;25.70;53.30;;;;;;4968349;28;20079;-54
2022/06/04 06:56:20;;;;;;;1.30;1.17;;;25.70;53.30;;;;;;4967727;28;20046;-57
2022/06/04 06:58:48;;;;;;;0.90;0.90;;;25.70;53.40;;;;;;4963458;28;20193;-57
2022/06/04 07:01:15;;;;;;;1.65;0.68;;;25.60;53.30;;;;;;4965730;28;20050;-57
2022/06/04 07:03:45;;;;;;;1.10;1.00;;;25.70;53.40;;;;;;4968626;28;20630;-55
2022/06/04 07:06:14;;;;;;;1.23;0.80;;;25.70;53.40;;;;;;4967770;28;20035;-57
2022/06/04 07:08:43;;;;;;;3.50;1.50;;;25.70;53.40;;;;;;4967935;28;20042;-58
2022/06/04 07:11:10;;;;;;;3.72;1.02;;;25.60;53.40;;;;;;4967802;28;20054;-58
2022/06/04 07:13:37;;;;;;;4.53;2.00;;;25.60;53.50;;;;;;4967489;28;20479;-57
2022/06/04 07:16:04;;;;;;;4.03;1.95;;;25.60;53.50;;;;;;4970491;28;20038;-58
2022/06/04 07:18:31;;;;;;;5.28;2.28;;;25.60;53.50;;;;;;4967991;28;20742;-58
2022/06/04 07:21:00;;;;;;;5.70;1.60;;;25.60;53.60;;;;;;4967394;28;20038;-57
2022/06/04 07:23:28;;;;;;;2.17;2.08;;;25.60;53.70;;;;;;4967461;28;20072;-57
2022/06/04 07:25:55;;;;;;;7.65;1.83;;;25.60;53.80;;;;;;4967817;28;20046;-55
2022/06/04 07:28:23;;;;;;;4.90;1.80;;;25.60;53.90;;;;;;4967867;28;20418;-57
2022/06/04 07:30:50;;;;;;;5.22;2.53;;;25.50;53.90;;;;;;4968682;28;20518;-55
2022/06/04 07:33:17;;;;;;;4.72;2.15;;;25.50;53.90;;;;;;4967495;28;20047;-59
2022/06/04 07:35:48;;;;;;;2.50;2.17;;;25.50;54.00;;;;;;4967363;28;20035;-55
2022/06/04 07:38:18;;;;;;;8.35;1.40;;;25.50;54.10;;;;;;4967523;28;20046;-55
2022/06/04 07:40:46;;;;;;;2.00;1.83;;;25.50;54.10;;;;;;4967542;28;20065;-58
2022/06/04 07:43:14;;;;;;;5.05;1.50;;;25.50;54.20;;;;;;4968930;28;20094;-56
2022/06/04 07:45:41;;;;;;;2.22;2.13;;;25.50;54.30;;;;;;4966918;28;20098;-55
2022/06/04 07:48:09;;;;;;;2.05;1.60;;;25.50;54.30;;;;;;4966858;28;20109;-59
2022/06/04 07:50:38;;;;;;;2.95;2.75;;;25.50;54.40;;;;;;4967452;28;20054;-57
2022/06/04 07:53:05;;;;;;;2.20;1.55;;;25.50;54.50;;;;;;4962646;28;20034;-57
2022/06/04 07:55:38;;;;;;;7.50;1.90;;;25.50;54.60;;;;;;4966694;28;20047;-59
2022/06/04 07:58:05;;;;;;;4.07;1.52;;;25.50;54.60;;;;;;4967289;28;20057;-62
2022/06/04 08:00:37;;;;;;;7.25;1.00;;;25.50;54.70;;;;;;4967030;28;20264;-64
2022/06/04 08:03:04;;;;;;;6.82;1.33;;;25.50;54.80;;;;;;4965033;28;20739;-46
2022/06/04 08:05:31;;;;;;;8.20;1.40;;;25.50;55.00;;;;;;4966174;28;20138;-49
2022/06/04 08:07:58;;;;;;;4.82;0.75;;;25.50;55.30;;;;;;4966689;28;20546;-45
2022/06/04 08:10:25;;;;;;;9.23;2.40;;;25.50;55.40;;;;;;4965414;28;20403;-53
2022/06/04 08:12:54;;;;;;;10.80;2.05;;;25.60;55.60;;;;;;4967494;28;20047;-52
2022/06/04 08:15:22;;;;;;;13.68;2.47;;;25.60;55.70;;;;;;4962994;28;20109;-51
2022/06/04 08:17:49;;;;;;;5.60;1.52;;;25.60;55.70;;;;;;4963353;28;20491;-48
2022/06/04 08:20:18;;;;;;;11.02;1.50;;;25.70;55.80;;;;;;4966312;28;20039;-49
2022/06/04 08:22:45;;;;;;;4.38;1.17;;;25.70;55.90;;;;;;4963426;28;20141;-52
2022/06/04 08:25:13;;;;;;;8.65;1.80;;;25.70;55.90;;;;;;4963470;28;20360;-50
2022/06/04 08:27:40;;;;;;;13.00;2.35;;;25.70;55.90;;;;;;4947797;28;20585;-62
2022/06/04 08:30:09;;;;;;;9.60;2.03;;;25.70;56.30;;;;;;4963705;28;20039;-60
2022/06/04 08:32:36;;;;;;;7.18;2.03;;;25.80;56.40;;;;;;4964922;28;20078;-63
2022/06/04 08:35:04;;;;;;;8.07;2.30;;;25.80;56.40;;;;;;4964969;28;20700;-58
2022/06/04 08:37:31;;;;;;;8.20;1.42;;;25.80;56.60;;;;;;4966952;28;20047;-61
2022/06/04 08:39:59;;;;;;;13.32;2.47;;;25.90;56.70;;;;;;4965372;28;20035;-61
2022/06/04 08:42:41;;;;;;;14.35;2.47;;;25.90;56.90;;;;;;4966527;28;20122;-63
2022/06/04 08:45:12;;;;;;;10.23;1.58;;;26.00;57.00;;;;;;4966553;28;20047;-64
2022/06/04 08:47:44;;;;;;;6.53;1.75;;;26.00;57.00;;;;;;4966060;28;20133;-64
2022/06/04 08:50:19;;;;;;;6.80;1.02;;;26.00;56.90;;;;;;4964185;28;20035;-63
2022/06/04 08:52:48;;;;;;;5.38;1.75;;;26.00;56.80;;;;;;4966299;28;20043;-63
2022/06/04 08:58:15;;;;;;;8.32;1.30;;;26.00;56.70;;;;;;4967205;28;20525;-63
2022/06/04 09:00:50;;;;;;;8.32;1.40;;;26.00;56.60;;;;;;4948874;28;20122;-62
2022/06/04 09:03:23;;;;;;;9.80;1.83;;;26.00;56.40;;;;;;4966638;28;20110;-63
2022/06/04 09:06:04;;;;;;;9.38;1.67;;;26.10;56.40;;;;;;4966734;28;20134;-63
2022/06/04 09:08:42;;;;;;;3.22;1.25;;;26.10;56.30;;;;;;4942600;28;20110;-62
2022/06/04 09:11:14;;;;;;;5.78;0.90;;;26.10;56.30;;;;;;4967003;28;20039;-62
2022/06/04 09:13:48;;;;;;;4.28;1.55;;;26.10;56.10;;;;;;4967314;28;20078;-63
2022/06/04 09:16:25;;;;;;;3.72;1.67;;;26.10;56.10;;;;;;4974264;28;20049;-63
2022/06/04 09:18:59;;;;;;;6.88;1.40;;;26.20;56.10;;;;;;4970808;28;20538;-63
2022/06/04 09:21:32;;;;;;;5.78;1.25;;;26.10;55.90;;;;;;4967403;28;20122;-63
2022/06/04 09:23:59;;;;;;;4.95;0.98;;;26.20;55.80;;;;;;4964168;28;20562;-62
2022/06/04 09:26:33;;;;;;;4.95;1.63;;;26.20;55.70;;;;;;4969934;28;20042;-62
2022/06/04 09:29:16;;;;;;;3.17;1.08;;;26.20;55.60;;;;;;4970125;28;20571;-62
2022/06/04 09:31:52;;;;;;;2.65;1.10;;;26.20;55.50;;;;;;4970130;28;20790;-62
2022/06/04 09:34:20;;;;;;;;;;;26.20;55.40;;;;;;4971451;28;20137;-62
2022/06/04 09:36:48;;;;;;;5.00;1.05;;;26.20;55.40;;;;;;4970638;28;19922;-62
2022/06/04 09:39:23;;;;;;;1.17;1.05;;;26.20;55.40;;;;;;4969369;28;20082;-63
2022/06/04 09:41:53;;;;;;;4.40;0.80;;;26.20;55.30;;;;;;4970302;28;20046;-62
2022/06/04 09:44:22;;;;;;;2.38;1.52;;;26.20;55.20;;;;;;4969470;28;20146;-62
2022/06/04 09:46:55;;;;;;;2.40;0.85;;;26.30;55.20;;;;;;4969914;28;20043;-62
2022/06/04 09:49:32;;;;;;;2.78;0.98;;;26.30;55.10;;;;;;4966851;28;20090;-62
2022/06/04 09:52:10;;;;;;;2.38;0.57;;;26.30;55.00;;;;;;4971038;28;20039;-62
2022/06/04 09:54:40;;;;;;;1.27;1.17;;;26.30;54.90;;;;;;4969168;28;20053;-62
2022/06/04 09:57:08;;;;;;;3.70;1.08;;;26.30;54.80;;;;;;4969746;28;20168;-63
2022/06/04 09:59:35;;;;;;;4.97;1.63;;;26.40;54.80;;;;;;4969056;28;20045;-62
2022/06/04 10:02:18;;;;;;;3.67;0.82;;;26.40;54.70;;;;;;4969309;28;20395;-62
2022/06/04 10:04:47;;;;;;;1.48;0.90;;;26.40;54.50;;;;;;4969442;28;20767;-62
2022/06/04 10:07:18;;;;;;;1.13;1.02;;;26.40;54.50;;;;;;4970877;28;20129;-64
2022/06/04 10:09:56;;;;;;;1.88;0.73;;;26.40;54.40;;;;;;4970302;28;20105;-62
2022/06/04 10:15:22;;;;;;;2.90;0.65;;;26.40;54.30;;;;;;4969639;28;20039;-61
2022/06/04 10:18:03;;;;;;;1.63;0.80;;;26.50;54.30;;;;;;4968998;28;20035;-62
2022/06/04 10:20:31;;;;;;;1.05;1.00;;;26.50;54.20;;;;;;4968657;28;20058;-62
2022/06/04 10:22:58;;;;;;;2.33;0.70;;;26.50;54.10;;;;;;4969078;28;20034;-62
2022/06/04 10:25:33;;;;;;;2.60;0.63;;;26.50;54.00;;;;;;4969460;28;20565;-62
2022/06/04 10:28:13;;;;;;;2.60;1.42;;;26.50;53.90;;;;;;4967592;28;20051;-62
2022/06/04 10:30:51;;;;;;;2.15;0.88;;;26.60;53.90;;;;;;4968215;28;20118;-63
2022/06/04 10:33:31;;;;;;;1.02;0.50;;;26.60;53.90;;;;;;4966061;28;20122;-62
2022/06/04 10:36:12;;;;;;;1.30;0.50;;;26.60;53.80;;;;;;4968383;28;20786;-62
2022/06/04 10:38:50;;;;;;;0.52;0.40;;;26.60;53.70;;;;;;4962423;28;20051;-61
2022/06/04 10:41:26;;;;;;;1.25;0.80;;;26.60;53.60;;;;;;4968738;28;20129;-61
2022/06/04 10:44:30;;;;;;;1.10;0.70;;;26.60;53.50;;;;;;4965961;28;20039;-62
2022/06/04 10:47:08;;;;;;;2.28;0.65;;;26.70;53.40;;;;;;4963516;28;20051;-61
2022/06/04 10:49:57;;;;;;;0.77;0.47;;;26.70;53.50;;;;;;4967978;28;20118;-61
2022/06/04 10:52:28;;;;;;;1.35;0.73;;;26.70;53.50;;;;;;4956456;28;20046;-62
2022/06/04 10:55:05;;;;;;;2.03;1.00;;;26.70;53.30;;;;;;4969226;28;20542;-61
2022/06/04 10:57:36;;;;;;;1.38;0.43;;;26.70;53.10;;;;;;4968328;28;20043;-61
2022/06/04 11:00:10;;;;;;;1.13;0.50;;;26.70;53.50;;;;;;4962745;28;20106;-61
2022/06/04 11:02:44;;;;;;;2.40;0.73;;;26.80;53.30;;;;;;4950859;28;20145;-60
2022/06/04 11:05:17;;;;;;;1.75;0.57;;;26.80;52.80;;;;;;4967642;28;20608;-61
2022/06/04 11:07:53;;;;;;;0.60;0.50;;;26.80;52.70;;;;;;4968172;28;20109;-61
2022/06/04 11:10:24;;;;;;;1.58;0.30;;;26.80;52.60;;;;;;4966862;28;20046;-61
2022/06/04 11:12:57;;;;;;;1.58;0.20;;;26.90;52.60;;;;;;4968567;28;20093;-61
2022/06/04 11:15:30;;;;;;;0.77;0.77;;;26.90;52.50;;;;;;4971358;28;20491;-61
2022/06/04 11:18:04;;;;;;;1.08;0.70;;;26.90;52.40;;;;;;4970178;28;20043;-61
2022/06/04 11:20:37;;;;;;;2.60;0.50;;;26.90;52.90;;;;;;4962349;28;20051;-63
2022/06/04 11:23:29;;;;;;;0.85;0.40;;;27.00;52.30;;;;;;4962524;28;20061;-61
2022/06/04 11:26:02;;;;;;;3.33;0.73;;;27.00;52.20;;;;;;4965844;28;20039;-61
2022/06/04 11:28:31;;;;;;;2.05;0.40;;;27.00;52.20;;;;;;4968309;28;20506;-63
2022/06/04 11:31:13;;;;;;;2.40;0.40;;;27.00;52.10;;;;;;4969147;28;20047;-62
2022/06/04 11:33:52;;;;;;;2.67;0.30;;;27.00;52.00;;;;;;4967089;28;20051;-61
2022/06/04 11:36:28;;;;;;;0.80;0.30;;;27.10;52.00;;;;;;4966917;28;20126;-61
2022/06/04 11:39:00;;;;;;;;;;;27.10;51.90;;;;;;4968235;28;20538;-61
2022/06/04 11:41:35;;;;;;;0.32;0.32;;;27.10;51.90;;;;;;4967716;28;19922;-61
2022/06/04 11:44:28;;;;;;;1.75;0.80;;;27.10;51.90;;;;;;4967429;28;20117;-61
2022/06/04 11:47:06;;;;;;;0.30;0.30;;;27.10;51.80;;;;;;4888612;29;20151;-61
2022/06/04 11:49:40;;;;;;;0.65;0.40;;;27.20;51.80;;;;;;4888674;29;20494;-62
2022/06/04 11:52:18;;;;;;;0.40;0.40;;;27.20;51.60;;;;;;4889311;29;20053;-61
2022/06/04 11:55:15;;;;;;;0.20;0.20;;;27.30;51.50;;;;;;4889414;29;20102;-61
2022/06/04 11:57:53;;;;;;;2.25;0.73;;;27.30;51.40;;;;;;4888291;29;20044;-61
2022/06/04 12:00:26;;;;;;;0.88;0.30;;;27.30;51.30;;;;;;4887535;29;20868;-61
2022/06/04 12:03:01;;;;;;;0.50;0.30;;;27.30;51.20;;;;;;4887935;29;20087;-61
2022/06/04 12:05:41;;;;;;;0.77;0.43;;;27.40;51.20;;;;;;4888081;29;20104;-63
2022/06/04 12:08:13;;;;;;;0.93;0.40;;;27.40;51.10;;;;;;4887704;29;20048;-61
2022/06/04 12:11:13;;;;;;;0.50;0.50;;;27.50;51.00;;;;;;4887564;29;20144;-61
2022/06/04 12:13:48;;;;;;;0.52;0.22;;;27.50;50.80;;;;;;4906584;29;20070;-63
2022/06/04 12:16:17;;;;;;;;;;;27.50;50.70;;;;;;4908767;29;20517;-62
2022/06/04 12:18:51;;;;;;;2.55;0.45;;;27.50;50.70;;;;;;4906245;29;19927;-62
2022/06/04 12:24:33;;;;;;;1.52;0.55;;;27.60;50.60;;;;;;4941923;28;20061;-62
2022/06/04 12:27:17;;;;;;;0.40;0.30;;;27.60;50.40;;;;;;4967065;28;20031;-62
2022/06/04 12:29:46;;;;;;;0.50;0.47;;;27.60;50.30;;;;;;4962262;28;20053;-62
2022/06/04 12:32:28;;;;;;;2.65;0.50;;;27.70;50.20;;;;;;4967078;28;20522;-61
2022/06/04 12:35:06;;;;;;;0.30;0.30;;;27.70;50.10;;;;;;4964458;28;20797;-64
2022/06/04 12:37:36;;;;;;;0.75;0.30;;;27.80;50.00;;;;;;4967779;28;20131;-63
2022/06/04 12:40:28;;;;;;;0.40;0.22;;;27.80;49.90;;;;;;4974258;28;20051;-61
2022/06/04 12:43:01;;;;;;;0.30;0.30;;;27.90;49.90;;;;;;4968151;28;20134;-63
2022/06/04 12:45:36;;;;;;;0.20;0.20;;;27.90;49.80;;;;;;4966671;28;20539;-61
2022/06/04 12:48:18;;;;;;;2.05;0.30;;;28.00;49.70;;;;;;4967268;28;20392;-61
2022/06/04 12:50:49;;;;;;;0.47;0.40;;;28.00;49.60;;;;;;4970728;28;20062;-61
2022/06/04 12:53:21;;;;;;;1.90;0.10;;;28.00;49.40;;;;;;4970258;28;20039;-60
2022/06/04 12:55:51;;;;;;;0.40;0.25;;;28.00;49.30;;;;;;4970606;28;20105;-61
2022/06/04 12:58:31;;;;;;;0.82;0.15;;;28.10;49.30;;;;;;4968617;28;20042;-61
2022/06/04 13:01:00;;;;;;;0.20;0.20;;;28.10;49.20;;;;;;4971225;28;20466;-62
2022/06/04 13:03:39;;;;;;;0.52;0.20;;;28.10;49.10;;;;;;4970142;28;20089;-61
2022/06/04 13:06:30;;;;;;;1.65;0.25;;;28.10;48.90;;;;;;4969999;28;20574;-61
2022/06/04 13:09:12;;;;;;;0.60;0.20;;;28.10;48.80;;;;;;4970105;28;20641;-61
2022/06/04 13:11:56;;;;;;;0.32;0.20;;;28.20;48.90;;;;;;4965225;28;20042;-61
2022/06/04 13:14:41;;;;;;;0.65;0.63;;;28.20;48.80;;;;;;4967561;28;20126;-61
2022/06/04 13:17:29;;;;;;;1.05;0.10;;;28.20;48.80;;;;;;4953103;28;20047;-62
2022/06/04 13:20:19;;;;;;;0.20;0.15;;;28.20;48.60;;;;;;4966142;28;20054;-59
2022/06/04 13:22:50;;;;;;;0.50;0.20;;;28.20;48.60;;;;;;4970000;28;20047;-61
2022/06/04 13:25:22;;;;;;;0.20;0.10;;;28.20;48.50;;;;;;4971181;28;20043;-61
2022/06/04 13:27:53;;;;;;;0.35;0.10;;;28.20;48.50;;;;;;4971115;28;20426;-61
2022/06/04 13:30:23;;;;;;;0.30;0.10;;;28.20;48.30;;;;;;4969871;28;20419;-61